sensor_id;sensor_type;location;lat;lon;timestamp;pressure;altitude;pressure_sealevel;temperature;humidity
77263;BME280;66373;52.334;4.806;2023-04-15T00:01:01;100827.63;;;19.28;46.74
77263;BME280;66373;52.334;4.806;2023-04-15T00:03:29;100809.75;;;19.15;46.86
77263;BME280;66373;52.334;4.806;2023-04-15T00:06:11;100832.03;;;19.26;46.89
77263;BME280;66373;52.334;4.806;2023-04-15T00:08:57;100802.13;;;19.07;46.77
77263;BME280;66373;52.334;4.806;2023-04-15T00:11:24;100820.88;;;19.21;46.68
77263;BME280;66373;52.334;4.806;2023-04-15T00:13:52;100769.59;;;18.88;46.65
77263;BME280;66373;52.334;4.806;2023-04-15T00:16:19;100828.72;;;19.21;46.77
77263;BME280;66373;52.334;4.806;2023-04-15T00:18:47;100825.25;;;19.21;46.61
77263;BME280;66373;52.334;4.806;2023-04-15T00:21:16;100816.78;;;19.11;46.71
77263;BME280;66373;52.334;4.806;2023-04-15T00:23:43;100814.25;;;19.08;46.53
77263;BME280;66373;52.334;4.806;2023-04-15T00:26:14;100824.47;;;19.17;46.49
77263;BME280;66373;52.334;4.806;2023-04-15T00:28:42;100827.97;;;19.16;46.44
77263;BME280;66373;52.334;4.806;2023-04-15T00:31:09;100826.25;;;19.15;46.69
77263;BME280;66373;52.334;4.806;2023-04-15T00:33:37;100824.53;;;19.14;46.40
77263;BME280;66373;52.334;4.806;2023-04-15T00:36:06;100829.75;;;19.14;46.59
77263;BME280;66373;52.334;4.806;2023-04-15T00:38:36;100826.31;;;19.12;46.13
77263;BME280;66373;52.334;4.806;2023-04-15T00:41:04;100822.97;;;19.07;46.10
77263;BME280;66373;52.334;4.806;2023-04-15T00:43:32;100829.84;;;19.11;46.44
77263;BME280;66373;52.334;4.806;2023-04-15T00:46:00;100827.41;;;19.04;46.49
77263;BME280;66373;52.334;4.806;2023-04-15T00:48:30;100813.66;;;18.97;46.17
77263;BME280;66373;52.334;4.806;2023-04-15T00:50:58;100840.34;;;19.08;46.46
77263;BME280;66373;52.334;4.806;2023-04-15T00:53:25;100766.81;;;18.61;46.57
77263;BME280;66373;52.334;4.806;2023-04-15T00:55:54;100833.56;;;19.01;46.25
77263;BME280;66373;52.334;4.806;2023-04-15T00:58:22;100839.56;;;19.05;46.19
77263;BME280;66373;52.334;4.806;2023-04-15T01:00:50;100846.50;;;19.04;46.22
77263;BME280;66373;52.334;4.806;2023-04-15T01:03:20;100847.41;;;19.03;46.15
77263;BME280;66373;52.334;4.806;2023-04-15T01:05:47;100844.84;;;19.02;46.35
77263;BME280;66373;52.334;4.806;2023-04-15T01:08:16;100756.50;;;18.55;46.09
77263;BME280;66373;52.334;4.806;2023-04-15T01:10:43;100832.84;;;18.96;46.22
77263;BME280;66373;52.334;4.806;2023-04-15T01:13:13;100844.03;;;18.99;46.17
77263;BME280;66373;52.334;4.806;2023-04-15T01:15:40;100838.94;;;18.95;46.14
77263;BME280;66373;52.334;4.806;2023-04-15T01:18:08;100777.25;;;18.60;46.44
77263;BME280;66373;52.334;4.806;2023-04-15T01:20:37;100823.53;;;18.86;46.09
77263;BME280;66373;52.334;4.806;2023-04-15T01:23:05;100804.88;;;18.67;46.10
77263;BME280;66373;52.334;4.806;2023-04-15T01:25:34;100838.94;;;18.95;46.49
77263;BME280;66373;52.334;4.806;2023-04-15T01:28:02;100840.72;;;18.93;46.55
77263;BME280;66373;52.334;4.806;2023-04-15T01:30:33;100829.56;;;18.88;46.37
77263;BME280;66373;52.334;4.806;2023-04-15T01:33:00;100840.78;;;18.91;46.26
77263;BME280;66373;52.334;4.806;2023-04-15T01:35:28;100831.31;;;18.87;46.25
77263;BME280;66373;52.334;4.806;2023-04-15T01:38:01;100835.63;;;18.88;46.13
77263;BME280;66373;52.334;4.806;2023-04-15T01:40:30;100833.03;;;18.88;46.29
77263;BME280;66373;52.334;4.806;2023-04-15T01:42:59;100837.41;;;18.86;46.42
77263;BME280;66373;52.334;4.806;2023-04-15T01:45:27;100840.03;;;18.86;46.29
77263;BME280;66373;52.334;4.806;2023-04-15T01:47:54;100834.97;;;18.79;46.39
77263;BME280;66373;52.334;4.806;2023-04-15T01:50:22;100847.88;;;18.85;45.99
77263;BME280;66373;52.334;4.806;2023-04-15T01:52:50;100847.06;;;18.83;46.39
77263;BME280;66373;52.334;4.806;2023-04-15T01:55:18;100758.88;;;18.29;46.39
77263;BME280;66373;52.334;4.806;2023-04-15T01:57:45;100853.16;;;18.82;46.26
77263;BME280;66373;52.334;4.806;2023-04-15T02:00:14;100860.16;;;18.80;46.27
77263;BME280;66373;52.334;4.806;2023-04-15T02:02:42;100860.16;;;18.80;46.38
77263;BME280;66373;52.334;4.806;2023-04-15T02:05:10;100856.72;;;18.78;46.37
77263;BME280;66373;52.334;4.806;2023-04-15T02:07:37;100856.72;;;18.78;46.27
77263;BME280;66373;52.334;4.806;2023-04-15T02:10:05;100856.72;;;18.78;46.50
77263;BME280;66373;52.334;4.806;2023-04-15T02:12:34;100834.56;;;18.58;46.64
77263;BME280;66373;52.334;4.806;2023-04-15T02:15:01;100862.00;;;18.75;46.29
77263;BME280;66373;52.334;4.806;2023-04-15T02:17:33;100854.31;;;18.70;46.47
77263;BME280;66373;52.334;4.806;2023-04-15T02:20:01;100856.25;;;18.62;46.37
77263;BME280;66373;52.334;4.806;2023-04-15T02:22:31;100867.28;;;18.72;46.43
77263;BME280;66373;52.334;4.806;2023-04-15T02:24:59;100872.56;;;18.70;46.13
77263;BME280;66373;52.334;4.806;2023-04-15T02:27:26;100865.63;;;18.69;46.56
77263;BME280;66373;52.334;4.806;2023-04-15T02:29:55;100872.66;;;18.66;46.49
77263;BME280;66373;52.334;4.806;2023-04-15T02:32:23;100877.81;;;18.69;46.42
77263;BME280;66373;52.334;4.806;2023-04-15T02:34:55;100881.31;;;18.68;46.40
77263;BME280;66373;52.334;4.806;2023-04-15T02:37:22;100869.31;;;18.59;46.15
77263;BME280;66373;52.334;4.806;2023-04-15T02:39:52;100887.44;;;18.65;46.32
77263;BME280;66373;52.334;4.806;2023-04-15T02:42:20;100890.06;;;18.63;46.37
77263;BME280;66373;52.334;4.806;2023-04-15T02:44:49;100885.75;;;18.62;46.12
77263;BME280;66373;52.334;4.806;2023-04-15T02:47:17;100890.16;;;18.60;46.18
77263;BME280;66373;52.334;4.806;2023-04-15T02:49:44;100897.09;;;18.60;46.22
77263;BME280;66373;52.334;4.806;2023-04-15T02:52:13;100888.44;;;18.59;46.29
77263;BME280;66373;52.334;4.806;2023-04-15T02:54:41;100897.09;;;18.58;46.36
77263;BME280;66373;52.334;4.806;2023-04-15T02:57:08;100899.78;;;18.55;46.29
77263;BME280;66373;52.334;4.806;2023-04-15T02:59:36;100898.88;;;18.56;46.26
77263;BME280;66373;52.334;4.806;2023-04-15T03:02:04;100910.19;;;18.55;46.29
77263;BME280;66373;52.334;4.806;2023-04-15T03:04:33;100907.63;;;18.54;46.27
77263;BME280;66373;52.334;4.806;2023-04-15T03:07:00;100905.88;;;18.54;46.30
77263;BME280;66373;52.334;4.806;2023-04-15T03:09:29;100910.25;;;18.52;46.27
77263;BME280;66373;52.334;4.806;2023-04-15T03:11:58;100900.84;;;18.45;46.17
77263;BME280;66373;52.334;4.806;2023-04-15T03:14:26;100914.66;;;18.49;46.35
77263;BME280;66373;52.334;4.806;2023-04-15T03:16:53;100909.59;;;18.44;46.13
77263;BME280;66373;52.334;4.806;2023-04-15T03:19:21;100913.81;;;18.48;46.57
77263;BME280;66373;52.334;4.806;2023-04-15T03:21:48;100904.47;;;18.40;46.55
77263;BME280;66373;52.334;4.806;2023-04-15T03:24:17;100915.59;;;18.46;46.48
77263;BME280;66373;52.334;4.806;2023-04-15T03:26:46;100913.06;;;18.45;46.37
77263;BME280;66373;52.334;4.806;2023-04-15T03:29:16;100916.56;;;18.42;46.19
77263;BME280;66373;52.334;4.806;2023-04-15T03:31:44;100914.91;;;18.38;46.49
77263;BME280;66373;52.334;4.806;2023-04-15T03:34:12;100921.84;;;18.39;46.64
77263;BME280;66373;52.334;4.806;2023-04-15T03:36:39;100914.91;;;18.38;46.37
77263;BME280;66373;52.334;4.806;2023-04-15T03:39:07;100929.72;;;18.36;46.24
77263;BME280;66373;52.334;4.806;2023-04-15T03:41:35;100916.03;;;18.26;46.25
77263;BME280;66373;52.334;4.806;2023-04-15T03:44:04;100915.16;;;18.26;46.16
77263;BME280;66373;52.334;4.806;2023-04-15T03:46:31;100938.38;;;18.37;46.29
77263;BME280;66373;52.334;4.806;2023-04-15T03:48:59;100938.38;;;18.37;46.27
77263;BME280;66373;52.334;4.806;2023-04-15T03:51:26;100935.94;;;18.29;46.43
77263;BME280;66373;52.334;4.806;2023-04-15T03:53:54;100951.44;;;18.35;46.39
77263;BME280;66373;52.334;4.806;2023-04-15T03:56:21;100948.00;;;18.33;46.40
77263;BME280;66373;52.334;4.806;2023-04-15T03:58:49;100944.69;;;18.25;46.46
77263;BME280;66373;52.334;4.806;2023-04-15T04:01:18;100944.69;;;18.25;46.51
77263;BME280;66373;52.334;4.806;2023-04-15T04:03:45;100950.72;;;18.27;46.61
77263;BME280;66373;52.334;4.806;2023-04-15T04:06:13;100949.97;;;18.22;46.57
77263;BME280;66373;52.334;4.806;2023-04-15T04:08:41;100884.81;;;17.83;46.35
77263;BME280;66373;52.334;4.806;2023-04-15T04:11:09;100965.50;;;18.26;46.44
77263;BME280;66373;52.334;4.806;2023-04-15T04:13:36;100902.91;;;17.89;46.51
77263;BME280;66373;52.334;4.806;2023-04-15T04:16:04;100967.25;;;18.26;46.63
77263;BME280;66373;52.334;4.806;2023-04-15T04:18:33;100969.88;;;18.24;46.29
77263;BME280;66373;52.334;4.806;2023-04-15T04:21:00;100969.00;;;18.24;46.62
77263;BME280;66373;52.334;4.806;2023-04-15T04:23:28;100969.91;;;18.23;46.67
77263;BME280;66373;52.334;4.806;2023-04-15T04:25:55;100967.28;;;18.23;46.60
77263;BME280;66373;52.334;4.806;2023-04-15T04:28:23;100962.34;;;18.11;46.64
77263;BME280;66373;52.334;4.806;2023-04-15T04:30:50;100973.41;;;18.20;46.71
77263;BME280;66373;52.334;4.806;2023-04-15T04:33:18;100980.38;;;18.20;46.85
77263;BME280;66373;52.334;4.806;2023-04-15T04:35:46;100972.69;;;18.14;46.74
77263;BME280;66373;52.334;4.806;2023-04-15T04:38:14;100971.03;;;18.10;46.88
77263;BME280;66373;52.334;4.806;2023-04-15T04:40:41;100966.81;;;18.04;46.64
77263;BME280;66373;52.334;4.806;2023-04-15T04:43:09;100991.75;;;18.16;46.73
77263;BME280;66373;52.334;4.806;2023-04-15T04:45:36;100998.72;;;18.15;46.76
77263;BME280;66373;52.334;4.806;2023-04-15T04:48:04;101003.94;;;18.14;46.74
77263;BME280;66373;52.334;4.806;2023-04-15T04:50:33;100996.31;;;18.03;46.57
77263;BME280;66373;52.334;4.806;2023-04-15T04:53:03;101008.28;;;18.13;46.79
77263;BME280;66373;52.334;4.806;2023-04-15T04:55:30;101008.34;;;18.10;46.81
77263;BME280;66373;52.334;4.806;2023-04-15T04:57:57;101012.69;;;18.10;46.51
77263;BME280;66373;52.334;4.806;2023-04-15T05:00:25;101009.22;;;18.11;46.76
77263;BME280;66373;52.334;4.806;2023-04-15T05:02:52;101010.19;;;18.04;46.82
77263;BME280;66373;52.334;4.806;2023-04-15T05:05:21;101021.38;;;18.09;46.91
77263;BME280;66373;52.334;4.806;2023-04-15T05:07:48;101029.22;;;18.07;46.83
77263;BME280;66373;52.334;4.806;2023-04-15T05:10:17;101029.25;;;18.06;46.76
77263;BME280;66373;52.334;4.806;2023-04-15T05:12:45;101042.28;;;18.06;46.88
77263;BME280;66373;52.334;4.806;2023-04-15T05:15:12;101043.16;;;18.05;46.76
77263;BME280;66373;52.334;4.806;2023-04-15T05:17:40;101047.47;;;18.06;46.84
77263;BME280;66373;52.334;4.806;2023-04-15T05:20:08;101048.38;;;18.03;46.84
77263;BME280;66373;52.334;4.806;2023-04-15T05:22:36;101042.41;;;17.96;46.99
77263;BME280;66373;52.334;4.806;2023-04-15T05:25:04;101057.94;;;18.03;46.90
77263;BME280;66373;52.334;4.806;2023-04-15T05:27:33;101067.50;;;18.02;47.07
77263;BME280;66373;52.334;4.806;2023-04-15T05:30:01;101070.13;;;18.01;46.95
77263;BME280;66373;52.334;4.806;2023-04-15T05:32:29;100955.84;;;17.36;46.86
77263;BME280;66373;52.334;4.806;2023-04-15T05:34:56;101069.25;;;18.00;46.89
77263;BME280;66373;52.334;4.806;2023-04-15T05:37:24;101071.00;;;18.00;46.93
77263;BME280;66373;52.334;4.806;2023-04-15T05:39:51;101075.31;;;18.01;46.97
77263;BME280;66373;52.334;4.806;2023-04-15T05:42:18;101084.00;;;18.00;47.06
77263;BME280;66373;52.334;4.806;2023-04-15T05:44:47;101084.91;;;17.98;46.88
77263;BME280;66373;52.334;4.806;2023-04-15T05:47:14;101090.97;;;17.99;46.95
77263;BME280;66373;52.334;4.806;2023-04-15T05:49:42;101101.34;;;18.01;46.99
77263;BME280;66373;52.334;4.806;2023-04-15T05:52:10;101098.75;;;18.01;46.65
77263;BME280;66373;52.334;4.806;2023-04-15T05:54:37;101116.97;;;18.01;46.77
77263;BME280;66373;52.334;4.806;2023-04-15T05:57:05;101089.41;;;17.89;46.96
77263;BME280;66373;52.334;4.806;2023-04-15T05:59:33;101105.78;;;17.94;46.96
77263;BME280;66373;52.334;4.806;2023-04-15T06:02:01;101115.19;;;18.03;47.22
77263;BME280;66373;52.334;4.806;2023-04-15T06:04:29;101127.34;;;18.04;47.29
77263;BME280;66373;52.334;4.806;2023-04-15T06:06:57;101129.06;;;18.05;47.09
77263;BME280;66373;52.334;4.806;2023-04-15T06:09:25;101135.97;;;18.06;47.04
77263;BME280;66373;52.334;4.806;2023-04-15T06:11:53;101139.41;;;18.08;47.28
77263;BME280;66373;52.334;4.806;2023-04-15T06:14:21;101145.47;;;18.10;47.28
77263;BME280;66373;52.334;4.806;2023-04-15T06:16:48;101146.41;;;18.04;47.37
77263;BME280;66373;52.334;4.806;2023-04-15T06:19:17;101094.00;;;17.72;47.28
77263;BME280;66373;52.334;4.806;2023-04-15T06:21:45;101115.53;;;17.83;47.56
77263;BME280;66373;52.334;4.806;2023-04-15T06:24:13;101176.66;;;18.13;47.34
77263;BME280;66373;52.334;4.806;2023-04-15T06:26:40;101193.00;;;18.21;47.17
77263;BME280;66373;52.334;4.806;2023-04-15T06:29:08;101191.22;;;18.23;47.25
77263;BME280;66373;52.334;4.806;2023-04-15T06:31:35;101191.22;;;18.23;47.03
77263;BME280;66373;52.334;4.806;2023-04-15T06:34:02;101181.72;;;18.20;47.15
77263;BME280;66373;52.334;4.806;2023-04-15T06:36:31;101166.22;;;18.14;47.17
77263;BME280;66373;52.334;4.806;2023-04-15T06:38:59;101192.84;;;18.31;47.09
77263;BME280;66373;52.334;4.806;2023-04-15T06:41:27;101197.09;;;18.36;47.16
77263;BME280;66373;52.334;4.806;2023-04-15T06:43:54;101158.53;;;18.07;47.16
77263;BME280;66373;52.334;4.806;2023-04-15T06:46:22;101217.00;;;18.41;47.03
77263;BME280;66373;52.334;4.806;2023-04-15T06:48:50;101187.59;;;18.33;47.20
77263;BME280;66373;52.334;4.806;2023-04-15T06:51:17;101215.97;;;18.48;47.21
77263;BME280;66373;52.334;4.806;2023-04-15T06:53:47;101214.22;;;18.49;46.88
77263;BME280;66373;52.334;4.806;2023-04-15T06:56:14;101209.88;;;18.49;46.47
77263;BME280;66373;52.334;4.806;2023-04-15T06:58:42;101213.31;;;18.51;46.63
77263;BME280;66373;52.334;4.806;2023-04-15T07:01:09;101225.38;;;18.60;46.67
77263;BME280;66373;52.334;4.806;2023-04-15T07:03:39;101220.16;;;18.58;46.44
77263;BME280;66373;52.334;4.806;2023-04-15T07:06:06;101220.16;;;18.58;46.48
77263;BME280;66373;52.334;4.806;2023-04-15T07:08:34;101235.69;;;18.68;46.62
77263;BME280;66373;52.334;4.806;2023-04-15T07:11:03;101241.72;;;18.70;46.60
77263;BME280;66373;52.334;4.806;2023-04-15T07:13:31;101243.38;;;18.72;46.78
77263;BME280;66373;52.334;4.806;2023-04-15T07:15:58;101244.19;;;18.76;46.79
77263;BME280;66373;52.334;4.806;2023-04-15T07:18:26;101243.31;;;18.77;46.73
77263;BME280;66373;52.334;4.806;2023-04-15T07:20:53;101248.47;;;18.80;46.98
77263;BME280;66373;52.334;4.806;2023-04-15T07:23:21;101257.13;;;18.82;46.87
77263;BME280;66373;52.334;4.806;2023-04-15T07:25:48;101255.38;;;18.82;46.78
77263;BME280;66373;52.334;4.806;2023-04-15T07:28:18;101264.91;;;18.85;46.67
77263;BME280;66373;52.334;4.806;2023-04-15T07:30:46;101273.53;;;18.88;47.02
77263;BME280;66373;52.334;4.806;2023-04-15T07:33:13;101254.56;;;18.79;46.74
77263;BME280;66373;52.334;4.806;2023-04-15T07:35:41;101252.75;;;18.84;47.01
77263;BME280;66373;52.334;4.806;2023-04-15T07:38:08;101272.53;;;18.95;46.95
77263;BME280;66373;52.334;4.806;2023-04-15T07:40:37;101259.69;;;18.85;46.84
77263;BME280;66373;52.334;4.806;2023-04-15T07:43:05;101263.97;;;18.87;47.01
77263;BME280;66373;52.334;4.806;2023-04-15T07:45:34;101284.56;;;19.03;46.88
77263;BME280;66373;52.334;4.806;2023-04-15T07:48:04;101280.19;;;19.03;47.10
77263;BME280;66373;52.334;4.806;2023-04-15T07:50:32;101258.81;;;18.84;47.04
77263;BME280;66373;52.334;4.806;2023-04-15T07:53:00;101294.00;;;19.08;46.83
77263;BME280;66373;52.334;4.806;2023-04-15T07:55:28;101298.38;;;19.08;46.95
77263;BME280;66373;52.334;4.806;2023-04-15T07:57:55;101304.41;;;19.10;47.02
77263;BME280;66373;52.334;4.806;2023-04-15T08:00:23;101317.41;;;19.13;47.00
77263;BME280;66373;52.334;4.806;2023-04-15T08:02:53;101321.75;;;19.12;46.89
77263;BME280;66373;52.334;4.806;2023-04-15T08:05:22;101313.88;;;19.15;46.96
77263;BME280;66373;52.334;4.806;2023-04-15T08:07:49;101323.44;;;19.16;46.68
77263;BME280;66373;52.334;4.806;2023-04-15T08:10:17;101332.03;;;19.21;47.04
77263;BME280;66373;52.334;4.806;2023-04-15T08:12:44;101340.66;;;19.23;46.77
77263;BME280;66373;52.334;4.806;2023-04-15T08:15:14;101331.09;;;19.24;46.95
77263;BME280;66373;52.334;4.806;2023-04-15T08:17:42;101340.56;;;19.29;46.84
77263;BME280;66373;52.334;4.806;2023-04-15T08:20:11;101343.16;;;19.29;46.81
77263;BME280;66373;52.334;4.806;2023-04-15T08:22:39;101319.00;;;19.21;46.79
77263;BME280;66373;52.334;4.806;2023-04-15T08:25:08;101352.59;;;19.37;46.89
77263;BME280;66373;52.334;4.806;2023-04-15T08:27:35;101339.66;;;19.30;46.60
77263;BME280;66373;52.334;4.806;2023-04-15T08:30:04;101357.78;;;19.40;46.98
77263;BME280;66373;52.334;4.806;2023-04-15T08:32:31;101336.22;;;19.28;46.86
77263;BME280;66373;52.334;4.806;2023-04-15T08:34:58;101354.28;;;19.41;46.93
77263;BME280;66373;52.334;4.806;2023-04-15T08:37:27;101349.16;;;19.35;46.89
77263;BME280;66373;52.334;4.806;2023-04-15T08:39:54;101376.78;;;19.46;46.83
77263;BME280;66373;52.334;4.806;2023-04-15T08:42:27;101379.31;;;19.52;47.04
77263;BME280;66373;52.334;4.806;2023-04-15T08:44:58;101381.78;;;19.60;46.96
77263;BME280;66373;52.334;4.806;2023-04-15T08:47:29;101386.94;;;19.63;46.94
77263;BME280;66373;52.334;4.806;2023-04-15T08:49:57;101389.50;;;19.66;46.82
77263;BME280;66373;52.334;4.806;2023-04-15T08:52:25;101386.81;;;19.69;46.57
77263;BME280;66373;52.334;4.806;2023-04-15T08:54:56;101388.50;;;19.73;46.98
77263;BME280;66373;52.334;4.806;2023-04-15T08:57:25;101400.66;;;19.74;46.39
77263;BME280;66373;52.334;4.806;2023-04-15T08:59:55;101404.13;;;19.75;46.62
77263;BME280;66373;52.334;4.806;2023-04-15T09:02:24;101410.06;;;19.81;46.44
77263;BME280;66373;52.334;4.806;2023-04-15T09:04:52;101400.59;;;19.76;46.53
77263;BME280;66373;52.334;4.806;2023-04-15T09:07:20;101419.50;;;19.88;46.80
77263;BME280;66373;52.334;4.806;2023-04-15T09:09:47;101392.09;;;19.66;46.59
77263;BME280;66373;52.334;4.806;2023-04-15T09:12:16;101422.94;;;19.92;46.71
77263;BME280;66373;52.334;4.806;2023-04-15T09:14:44;101431.56;;;19.95;46.34
77263;BME280;66373;52.334;4.806;2023-04-15T09:17:18;101412.63;;;19.84;46.46
77263;BME280;66373;52.334;4.806;2023-04-15T09:19:46;101429.78;;;19.97;46.53
77263;BME280;66373;52.334;4.806;2023-04-15T09:22:13;101421.19;;;19.92;46.28
77263;BME280;66373;52.334;4.806;2023-04-15T09:24:41;101440.94;;;20.04;46.26
77263;BME280;66373;52.334;4.806;2023-04-15T09:27:08;101453.06;;;20.08;46.47
77263;BME280;66373;52.334;4.806;2023-04-15T09:29:40;101443.47;;;20.09;46.25
77263;BME280;66373;52.334;4.806;2023-04-15T09:32:14;101459.03;;;20.15;46.21
77263;BME280;66373;52.334;4.806;2023-04-15T09:34:42;101428.88;;;20.00;46.06
77263;BME280;66373;52.334;4.806;2023-04-15T09:37:09;101470.31;;;20.17;46.44
77263;BME280;66373;52.334;4.806;2023-04-15T09:39:46;101460.66;;;20.20;45.95
77263;BME280;66373;52.334;4.806;2023-04-15T09:42:15;101414.84;;;20.03;46.01
77263;BME280;66373;52.334;4.806;2023-04-15T09:44:50;101465.66;;;20.31;46.15
77263;BME280;66373;52.334;4.806;2023-04-15T09:47:27;101438.97;;;20.17;45.86
77263;BME280;66373;52.334;4.806;2023-04-15T09:49:55;101469.00;;;20.39;46.09
77263;BME280;66373;52.334;4.806;2023-04-15T09:52:23;101422.50;;;20.12;45.92
77263;BME280;66373;52.334;4.806;2023-04-15T09:54:52;101468.97;;;20.41;45.63
77263;BME280;66373;52.334;4.806;2023-04-15T09:57:21;101480.00;;;20.53;45.93
77263;BME280;66373;52.334;4.806;2023-04-15T09:59:51;101456.88;;;20.33;45.94
77263;BME280;66373;52.334;4.806;2023-04-15T10:02:19;101490.56;;;20.50;45.84
77263;BME280;66373;52.334;4.806;2023-04-15T10:04:47;101472.44;;;20.41;45.74
77263;BME280;66373;52.334;4.806;2023-04-15T10:07:16;101436.28;;;20.20;45.92
77263;BME280;66373;52.334;4.806;2023-04-15T10:09:45;101483.59;;;20.49;45.93
77263;BME280;66373;52.334;4.806;2023-04-15T10:12:15;101418.19;;;20.11;45.98
77263;BME280;66373;52.334;4.806;2023-04-15T10:14:43;101499.09;;;20.57;46.00
77263;BME280;66373;52.334;4.806;2023-04-15T10:17:17;101501.75;;;20.55;45.64
77263;BME280;66373;52.334;4.806;2023-04-15T10:19:44;101499.97;;;20.57;45.63
77263;BME280;66373;52.334;4.806;2023-04-15T10:22:13;101506.91;;;20.58;46.12
77263;BME280;66373;52.334;4.806;2023-04-15T10:24:41;101474.16;;;20.42;45.70
77263;BME280;66373;52.334;4.806;2023-04-15T10:27:10;101501.56;;;20.64;45.83
77263;BME280;66373;52.334;4.806;2023-04-15T10:29:38;101484.50;;;20.48;46.09
77263;BME280;66373;52.334;4.806;2023-04-15T10:32:06;101493.00;;;20.56;45.92
77263;BME280;66373;52.334;4.806;2023-04-15T10:34:35;101503.34;;;20.62;45.97
77263;BME280;66373;52.334;4.806;2023-04-15T10:37:04;101515.34;;;20.73;45.82
77263;BME280;66373;52.334;4.806;2023-04-15T10:39:38;101509.28;;;20.71;45.73
77263;BME280;66373;52.334;4.806;2023-04-15T10:42:07;101516.91;;;20.80;46.06
77263;BME280;66373;52.334;4.806;2023-04-15T10:44:35;101473.84;;;20.56;45.62
77263;BME280;66373;52.334;4.806;2023-04-15T10:47:09;101519.63;;;20.77;45.75
77263;BME280;66373;52.334;4.806;2023-04-15T10:49:44;101522.22;;;20.77;45.83
77263;BME280;66373;52.334;4.806;2023-04-15T10:52:13;101529.91;;;20.83;45.52
77263;BME280;66373;52.334;4.806;2023-04-15T10:54:41;101533.38;;;20.85;45.87
77263;BME280;66373;52.334;4.806;2023-04-15T10:57:13;101524.03;;;20.73;45.78
77263;BME280;66373;52.334;4.806;2023-04-15T11:00:03;101529.19;;;20.78;45.98
77263;BME280;66373;52.334;4.806;2023-04-15T11:02:44;101506.78;;;20.64;45.45
77263;BME280;66373;52.334;4.806;2023-04-15T11:05:14;101541.28;;;20.82;45.83
77263;BME280;66373;52.334;4.806;2023-04-15T11:07:48;101539.53;;;20.81;45.48
77263;BME280;66373;52.334;4.806;2023-04-15T11:10:49;101554.28;;;20.85;45.45
77263;BME280;66373;52.334;4.806;2023-04-15T11:13:25;101546.38;;;20.88;45.67
77263;BME280;66373;52.334;4.806;2023-04-15T11:15:58;101560.22;;;20.93;45.88
77263;BME280;66373;52.334;4.806;2023-04-15T11:18:28;101521.53;;;20.69;45.92
77263;BME280;66373;52.334;4.806;2023-04-15T11:20:59;101575.06;;;20.91;45.58
77263;BME280;66373;52.334;4.806;2023-04-15T11:23:31;101577.66;;;20.92;45.93
77263;BME280;66373;52.334;4.806;2023-04-15T11:25:59;101575.88;;;20.94;45.80
77263;BME280;66373;52.334;4.806;2023-04-15T11:28:28;101571.47;;;20.96;45.35
77263;BME280;66373;52.334;4.806;2023-04-15T11:30:56;101509.59;;;20.55;45.30
77263;BME280;66373;52.334;4.806;2023-04-15T11:33:24;101582.69;;;21.03;45.43
77263;BME280;66373;52.334;4.806;2023-04-15T11:35:52;101589.63;;;21.04;45.33
77263;BME280;66373;52.334;4.806;2023-04-15T11:38:21;101584.47;;;21.01;45.88
77263;BME280;66373;52.334;4.806;2023-04-15T11:40:49;101587.97;;;21.00;45.46
77263;BME280;66373;52.334;4.806;2023-04-15T11:43:19;101577.72;;;20.89;45.67
77263;BME280;66373;52.334;4.806;2023-04-15T11:45:51;101596.66;;;21.02;45.81
77263;BME280;66373;52.334;4.806;2023-04-15T11:48:20;101544.13;;;20.71;45.50
77263;BME280;66373;52.334;4.806;2023-04-15T11:50:53;101571.50;;;20.95;45.69
77263;BME280;66373;52.334;4.806;2023-04-15T11:53:22;101595.81;;;21.00;45.31
77263;BME280;66373;52.334;4.806;2023-04-15T11:55:52;101593.03;;;21.06;45.87
77263;BME280;66373;52.334;4.806;2023-04-15T11:58:21;101588.84;;;21.00;45.60
77263;BME280;66373;52.334;4.806;2023-04-15T12:00:50;101587.81;;;21.06;45.42
77263;BME280;66373;52.334;4.806;2023-04-15T12:03:23;101591.25;;;21.08;45.35
77263;BME280;66373;52.334;4.806;2023-04-15T12:06:08;101599.88;;;21.13;45.35
77263;BME280;66373;52.334;4.806;2023-04-15T12:08:54;101588.69;;;21.05;45.50
77263;BME280;66373;52.334;4.806;2023-04-15T12:11:31;101594.56;;;21.16;45.37
77263;BME280;66373;52.334;4.806;2023-04-15T12:14:03;101541.28;;;20.82;45.18
77263;BME280;66373;52.334;4.806;2023-04-15T12:16:34;101591.19;;;21.11;45.44
77263;BME280;66373;52.334;4.806;2023-04-15T12:19:05;101610.31;;;21.15;45.29
77263;BME280;66373;52.334;4.806;2023-04-15T12:21:35;101608.44;;;21.21;44.98
77263;BME280;66373;52.334;4.806;2023-04-15T12:24:05;101577.50;;;21.00;45.43
77263;BME280;66373;52.334;4.806;2023-04-15T12:26:35;101620.59;;;21.25;45.10
77263;BME280;66373;52.334;4.806;2023-04-15T12:29:04;101624.09;;;21.24;45.16
77263;BME280;66373;52.334;4.806;2023-04-15T12:31:32;101636.34;;;21.22;45.35
77263;BME280;66373;52.334;4.806;2023-04-15T12:34:00;101618.28;;;21.09;45.21
77263;BME280;66373;52.334;4.806;2023-04-15T12:36:27;101648.53;;;21.23;45.17
77263;BME280;66373;52.334;4.806;2023-04-15T12:38:55;101646.78;;;21.24;45.00
77263;BME280;66373;52.334;4.806;2023-04-15T12:41:23;101645.91;;;21.23;44.75
77263;BME280;66373;52.334;4.806;2023-04-15T12:43:51;101631.19;;;21.16;45.18
77263;BME280;66373;52.334;4.806;2023-04-15T12:46:18;101559.81;;;20.71;44.75
77263;BME280;66373;52.334;4.806;2023-04-15T12:48:45;101623.53;;;21.07;44.86
77263;BME280;66373;52.334;4.806;2023-04-15T12:51:12;101648.53;;;21.23;45.03
77263;BME280;66373;52.334;4.806;2023-04-15T12:53:39;101654.59;;;21.25;45.18
77263;BME280;66373;52.334;4.806;2023-04-15T12:56:06;101646.84;;;21.19;44.89
77263;BME280;66373;52.334;4.806;2023-04-15T12:58:34;101657.16;;;21.28;45.22